<?xml version='1.0' encoding='UTF-8'?><gpx version="1.1" creator="JPX - https://github.com/jenetics/jpx" xmlns="http://www.topografix.com/GPX/1/1"><trk><trkseg><trkpt lat="41.897217438443924" lon="14.93032049701549"><ele>25.000000000000004</ele><time>2026-04-18T15:50:55Z</time></trkpt><trkpt lat="41.89725817562978" lon="14.930404060545342"><ele>25.0</ele><time>2026-04-18T15:50:58Z</time></trkpt><trkpt lat="41.897178539752936" lon="14.930425962029284"><ele>25.0</ele><time>2026-04-18T15:51:02Z</time></trkpt><trkpt lat="41.89714058043572" lon="14.93035716975572"><ele>25.0</ele><time>2026-04-18T15:51:04Z</time></trkpt><trkpt lat="41.8970985188178" lon="14.93028072427606"><ele>25.0</ele><time>2026-04-18T15:51:06Z</time></trkpt><trkpt lat="41.89705626130181" lon="14.930206250842033"><ele>25.000000000000004</ele><time>2026-04-18T15:51:08Z</time></trkpt><trkpt lat="41.89700464597745" lon="14.930146368178372"><ele>25.0</ele><time>2026-04-18T15:51:10Z</time></trkpt><trkpt lat="41.89693811821105" lon="14.930089115176143"><ele>25.000000000000004</ele><time>2026-04-18T15:51:13Z</time></trkpt><trkpt lat="41.89688879162283" lon="14.930147489232978"><ele>25.0</ele><time>2026-04-18T15:51:15Z</time></trkpt><trkpt lat="41.8968684120302" lon="14.93025385965632"><ele>25.0</ele><time>2026-04-18T15:51:17Z</time></trkpt><trkpt lat="41.89677198415453" lon="14.930283630658272"><ele>25.0</ele><time>2026-04-18T15:51:20Z</time></trkpt><trkpt lat="41.89669906011874" lon="14.930237070938194"><ele>25.000000000000004</ele><time>2026-04-18T15:51:22Z</time></trkpt><trkpt lat="41.89663503899905" lon="14.930156039514273"><ele>25.0</ele><time>2026-04-18T15:51:24Z</time></trkpt><trkpt lat="41.89657271229294" lon="14.930080055763467"><ele>24.833333333333336</ele><time>2026-04-18T15:51:26Z</time></trkpt><trkpt lat="41.896513028068966" lon="14.92999466480803"><ele>24.666666666666668</ele><time>2026-04-18T15:51:28Z</time></trkpt><trkpt lat="41.89655583351516" lon="14.92991405386564"><ele>24.5</ele><time>2026-04-18T15:51:30Z</time></trkpt><trkpt lat="41.89659709941987" lon="14.929839824498243"><ele>24.333333333333336</ele><time>2026-04-18T15:51:33Z</time></trkpt><trkpt lat="41.89652567908236" lon="14.929776720220486"><ele>24.166666666666668</ele><time>2026-04-18T15:51:36Z</time></trkpt><trkpt lat="41.89645110444868" lon="14.929838659449743"><ele>24.0</ele><time>2026-04-18T15:51:38Z</time></trkpt><trkpt lat="41.89637378043075" lon="14.929860687142558"><ele>24.0</ele><time>2026-04-18T15:51:40Z</time></trkpt><trkpt lat="41.89628543291014" lon="14.929802787434037"><ele>24.0</ele><time>2026-04-18T15:51:42Z</time></trkpt><trkpt lat="41.89619162050024" lon="14.92974463316358"><ele>24.0</ele><time>2026-04-18T15:51:44Z</time></trkpt><trkpt lat="41.89609274264033" lon="14.929681188875849"><ele>24.0</ele><time>2026-04-18T15:51:46Z</time></trkpt><trkpt lat="41.895996876773" lon="14.929634587135435"><ele>24.0</ele><time>2026-04-18T15:51:48Z</time></trkpt><trkpt lat="41.8958986404606" lon="14.929545993820266"><ele>24.0</ele><time>2026-04-18T15:51:50Z</time></trkpt><trkpt lat="41.89582847247238" lon="14.929553243977635"><ele>24.0</ele><time>2026-04-18T15:51:51Z</time></trkpt><trkpt lat="41.895721319220165" lon="14.929491335874701"><ele>24.0</ele><time>2026-04-18T15:51:53Z</time></trkpt><trkpt lat="41.895625912352195" lon="14.92943426634049"><ele>24.0</ele><time>2026-04-18T15:51:55Z</time></trkpt><trkpt lat="41.895548153697426" lon="14.929414109871459"><ele>24.0</ele><time>2026-04-18T15:51:57Z</time></trkpt><trkpt lat="41.8954592938505" lon="14.92934283845318"><ele>24.0</ele><time>2026-04-18T15:51:59Z</time></trkpt><trkpt lat="41.89543787492861" lon="14.92925319478064"><ele>24.0</ele><time>2026-04-18T15:52:01Z</time></trkpt><trkpt lat="41.895485493218025" lon="14.929182807452872"><ele>24.0</ele><time>2026-04-18T15:52:04Z</time></trkpt><trkpt lat="41.89551080475224" lon="14.929032969458476"><ele>24.0</ele><time>2026-04-18T15:52:13Z</time></trkpt><trkpt lat="41.89541397649027" lon="14.929013381229572"><ele>24.0</ele><time>2026-04-18T15:52:15Z</time></trkpt><trkpt lat="41.895317690881996" lon="14.929060134890506"><ele>24.0</ele><time>2026-04-18T15:52:17Z</time></trkpt><trkpt lat="41.89525783719432" lon="14.92916035228196"><ele>24.0</ele><time>2026-04-18T15:52:19Z</time></trkpt><trkpt lat="41.895207315877265" lon="14.929288059505147"><ele>24.0</ele><time>2026-04-18T15:52:21Z</time></trkpt><trkpt lat="41.89515239846418" lon="14.929378875040275"><ele>24.0</ele><time>2026-04-18T15:52:23Z</time></trkpt><trkpt lat="41.895086538063936" lon="14.929405769991982"><ele>24.0</ele><time>2026-04-18T15:52:25Z</time></trkpt><trkpt lat="41.89500563232785" lon="14.929388052769417"><ele>24.0</ele><time>2026-04-18T15:52:47Z</time></trkpt><trkpt lat="41.894927816248554" lon="14.929319965980365"><ele>24.0</ele><time>2026-04-18T15:52:51Z</time></trkpt><trkpt lat="41.89489084516111" lon="14.929234652273589"><ele>24.0</ele><time>2026-04-18T15:52:53Z</time></trkpt><trkpt lat="41.89490970812629" lon="14.92914154415075"><ele>24.0</ele><time>2026-04-18T15:52:55Z</time></trkpt><trkpt lat="41.89494816829822" lon="14.929030455629931"><ele>24.0</ele><time>2026-04-18T15:52:57Z</time></trkpt><trkpt lat="41.89501288419069" lon="14.928982532195759"><ele>24.0</ele><time>2026-04-18T15:52:59Z</time></trkpt><trkpt lat="41.89508335029018" lon="14.928940263911391"><ele>24.0</ele><time>2026-04-18T15:53:01Z</time></trkpt><trkpt lat="41.89515219033104" lon="14.928871464468443"><ele>24.0</ele><time>2026-04-18T15:53:03Z</time></trkpt><trkpt lat="41.89522948547667" lon="14.928807557838363"><ele>24.0</ele><time>2026-04-18T15:53:05Z</time></trkpt><trkpt lat="41.89530646453707" lon="14.928742068796275"><ele>24.0</ele><time>2026-04-18T15:53:07Z</time></trkpt><trkpt lat="41.89538725632293" lon="14.92870429908252"><ele>24.0</ele><time>2026-04-18T15:53:09Z</time></trkpt><trkpt lat="41.89546067585788" lon="14.928685973138878"><ele>24.0</ele><time>2026-04-18T15:53:12Z</time></trkpt><trkpt lat="41.895526639895564" lon="14.928715475323047"><ele>24.0</ele><time>2026-04-18T15:54:24Z</time></trkpt><trkpt lat="41.89554825073256" lon="14.928820154997698"><ele>24.0</ele><time>2026-04-18T15:54:27Z</time></trkpt><trkpt lat="41.89549519748089" lon="14.92888093670331"><ele>24.0</ele><time>2026-04-18T15:54:30Z</time></trkpt><trkpt lat="41.89543033601077" lon="14.928834633832741"><ele>24.0</ele><time>2026-04-18T15:54:36Z</time></trkpt><trkpt lat="41.89536364712237" lon="14.92876275237596"><ele>24.0</ele><time>2026-04-18T15:54:40Z</time></trkpt><trkpt lat="41.89531870404775" lon="14.928862759076695"><ele>24.0</ele><time>2026-04-18T15:55:27Z</time></trkpt><trkpt lat="41.89525946620446" lon="14.928923086632311"><ele>24.0</ele><time>2026-04-18T15:55:30Z</time></trkpt><trkpt lat="41.89518467975159" lon="14.928953674721898"><ele>23.999999999999996</ele><time>2026-04-18T15:55:33Z</time></trkpt><trkpt lat="41.89516503805088" lon="14.929047055836037"><ele>24.0</ele><time>2026-04-18T15:55:36Z</time></trkpt><trkpt lat="41.89523051838064" lon="14.929082270217947"><ele>24.0</ele><time>2026-04-18T15:55:44Z</time></trkpt><trkpt lat="41.89528966740992" lon="14.92904395634504"><ele>24.0</ele><time>2026-04-18T15:55:47Z</time></trkpt><trkpt lat="41.89532508307226" lon="14.928968011690575"><ele>24.0</ele><time>2026-04-18T15:56:21Z</time></trkpt><trkpt lat="41.895382664601115" lon="14.928918767646639"><ele>23.999999999999996</ele><time>2026-04-18T15:56:24Z</time></trkpt><trkpt lat="41.8954591042405" lon="14.928943706501085"><ele>24.0</ele><time>2026-04-18T15:56:27Z</time></trkpt><trkpt lat="41.895511557042255" lon="14.928991618876365"><ele>24.0</ele><time>2026-04-18T15:56:40Z</time></trkpt><trkpt lat="41.89560154398306" lon="14.92903240733238"><ele>24.0</ele><time>2026-04-18T15:56:50Z</time></trkpt><trkpt lat="41.895668800837754" lon="14.929066066846392"><ele>24.0</ele><time>2026-04-18T15:56:53Z</time></trkpt><trkpt lat="41.895729589898274" lon="14.929089570771152"><ele>24.0</ele><time>2026-04-18T15:56:56Z</time></trkpt><trkpt lat="41.8957968551608" lon="14.929039656988722"><ele>24.0</ele><time>2026-04-18T15:56:59Z</time></trkpt><trkpt lat="41.89587162233151" lon="14.929043847901822"><ele>24.0</ele><time>2026-04-18T15:57:02Z</time></trkpt><trkpt lat="41.895925667741864" lon="14.92910567789788"><ele>24.0</ele><time>2026-04-18T15:57:04Z</time></trkpt><trkpt lat="41.89597674510174" lon="14.929157309632071"><ele>24.0</ele><time>2026-04-18T15:57:06Z</time></trkpt><trkpt lat="41.89597467299188" lon="14.92925170932004"><ele>24.0</ele><time>2026-04-18T15:57:08Z</time></trkpt><trkpt lat="41.89589612065047" lon="14.929291192229572"><ele>24.0</ele><time>2026-04-18T15:57:12Z</time></trkpt><trkpt lat="41.89610535888845" lon="14.929345335768062"><ele>24.0</ele><time>2026-04-18T15:57:24Z</time></trkpt><trkpt lat="41.896260682998026" lon="14.929392859532722"><ele>24.0</ele><time>2026-04-18T15:57:28Z</time></trkpt><trkpt lat="41.89631542656527" lon="14.929460037740721"><ele>24.0</ele><time>2026-04-18T15:57:30Z</time></trkpt><trkpt lat="41.89637452968518" lon="14.92952527137031"><ele>24.0</ele><time>2026-04-18T15:57:33Z</time></trkpt><trkpt lat="41.896397437361735" lon="14.929628251458999"><ele>24.0</ele><time>2026-04-18T15:57:36Z</time></trkpt><trkpt lat="41.896314712154506" lon="14.929640330862593"><ele>24.0</ele><time>2026-04-18T15:57:38Z</time></trkpt><trkpt lat="41.896254793995766" lon="14.929554147572984"><ele>24.0</ele><time>2026-04-18T15:57:40Z</time></trkpt><trkpt lat="41.8961860525962" lon="14.929493887558188"><ele>24.0</ele><time>2026-04-18T15:57:42Z</time></trkpt><trkpt lat="41.8961243568373" lon="14.929472447672847"><ele>24.0</ele><time>2026-04-18T15:57:44Z</time></trkpt><trkpt lat="41.89605961301509" lon="14.929504930441595"><ele>24.0</ele><time>2026-04-18T15:57:47Z</time></trkpt><trkpt lat="41.89613585148226" lon="14.929586284736548"><ele>24.0</ele><time>2026-04-18T15:57:50Z</time></trkpt><trkpt lat="41.89623160365399" lon="14.929657435597903"><ele>24.0</ele><time>2026-04-18T15:57:52Z</time></trkpt><trkpt lat="41.8963116428412" lon="14.929699462307118"><ele>24.0</ele><time>2026-04-18T15:57:54Z</time></trkpt><trkpt lat="41.89638534609566" lon="14.92973854433512"><ele>24.0</ele><time>2026-04-18T15:57:56Z</time></trkpt><trkpt lat="41.89646532871845" lon="14.929782357117308"><ele>24.0</ele><time>2026-04-18T15:57:58Z</time></trkpt><trkpt lat="41.89654405961118" lon="14.92984699032467"><ele>24.0</ele><time>2026-04-18T15:58:00Z</time></trkpt><trkpt lat="41.89661907742985" lon="14.929919087653433"><ele>24.0</ele><time>2026-04-18T15:58:02Z</time></trkpt><trkpt lat="41.89668384567174" lon="14.929994244734216"><ele>24.0</ele><time>2026-04-18T15:58:04Z</time></trkpt><trkpt lat="41.8967329485823" lon="14.930055638058779"><ele>24.0</ele><time>2026-04-18T15:58:07Z</time></trkpt><trkpt lat="41.89667072034473" lon="14.9299916420839"><ele>24.0</ele><time>2026-04-18T15:58:31Z</time></trkpt><trkpt lat="41.896609299253676" lon="14.929917146585238"><ele>24.0</ele><time>2026-04-18T15:58:33Z</time></trkpt><trkpt lat="41.896530690364756" lon="14.929859685837553"><ele>24.0</ele><time>2026-04-18T15:58:43Z</time></trkpt><trkpt lat="41.896464417243934" lon="14.929812990031587"><ele>24.0</ele><time>2026-04-18T15:58:46Z</time></trkpt><trkpt lat="41.89639183345328" lon="14.929767865851653"><ele>24.0</ele><time>2026-04-18T15:58:50Z</time></trkpt><trkpt lat="41.896489628568915" lon="14.929725273381115"><ele>24.0</ele><time>2026-04-18T15:59:07Z</time></trkpt><trkpt lat="41.89656230858669" lon="14.929699480077256"><ele>24.0</ele><time>2026-04-18T15:59:09Z</time></trkpt><trkpt lat="41.89664098205091" lon="14.929735238700387"><ele>24.0</ele><time>2026-04-18T15:59:11Z</time></trkpt><trkpt lat="41.896718037499134" lon="14.92978890840358"><ele>24.0</ele><time>2026-04-18T15:59:13Z</time></trkpt><trkpt lat="41.89678642072507" lon="14.92984688118347"><ele>24.0</ele><time>2026-04-18T15:59:16Z</time></trkpt><trkpt lat="41.89677922984959" lon="14.92995594181744"><ele>24.0</ele><time>2026-04-18T15:59:19Z</time></trkpt><trkpt lat="41.89683834311909" lon="14.930041827228946"><ele>24.0</ele><time>2026-04-18T15:59:28Z</time></trkpt><trkpt lat="41.89679589207579" lon="14.929966635443357"><ele>23.999999999999996</ele><time>2026-04-18T15:59:52Z</time></trkpt><trkpt lat="41.89674935601637" lon="14.930029153577282"><ele>24.0</ele><time>2026-04-18T16:00:30Z</time></trkpt><trkpt lat="41.896767499915555" lon="14.93011057972483"><ele>24.0</ele><time>2026-04-18T16:00:38Z</time></trkpt><trkpt lat="41.896845651022694" lon="14.930115802594676"><ele>24.0</ele><time>2026-04-18T16:00:47Z</time></trkpt><trkpt lat="41.896891848055425" lon="14.93002470711972"><ele>24.0</ele><time>2026-04-18T16:00:50Z</time></trkpt><trkpt lat="41.89695302545701" lon="14.929981118124457"><ele>23.999999999999996</ele><time>2026-04-18T16:00:53Z</time></trkpt><trkpt lat="41.89702030819261" lon="14.93002193935583"><ele>24.0</ele><time>2026-04-18T16:00:56Z</time></trkpt><trkpt lat="41.89709438670054" lon="14.930046714188245"><ele>24.142857142857142</ele><time>2026-04-18T16:01:00Z</time></trkpt><trkpt lat="41.897131268650845" lon="14.930122252643585"><ele>24.285714285714285</ele><time>2026-04-18T16:01:03Z</time></trkpt><trkpt lat="41.8971599882039" lon="14.93021276975295"><ele>24.42857142857143</ele><time>2026-04-18T16:01:06Z</time></trkpt><trkpt lat="41.89719878608234" lon="14.930281154706561"><ele>24.57142857142857</ele><time>2026-04-18T16:01:08Z</time></trkpt><trkpt lat="41.897233896889475" lon="14.93036182262043"><ele>24.714285714285715</ele><time>2026-04-18T16:01:10Z</time></trkpt><trkpt lat="41.897230823330986" lon="14.930454594659153"><ele>24.857142857142858</ele><time>2026-04-18T16:01:13Z</time></trkpt><trkpt lat="41.89716904315227" lon="14.930407718574367"><ele>25.0</ele><time>2026-04-18T16:01:15Z</time></trkpt><trkpt lat="41.897122750001884" lon="14.930311392059213"><ele>25.000000000000004</ele><time>2026-04-18T16:01:17Z</time></trkpt><trkpt lat="41.897066294671085" lon="14.930224709670908"><ele>25.0</ele><time>2026-04-18T16:01:19Z</time></trkpt><trkpt lat="41.897004422758634" lon="14.930148024671476"><ele>25.0</ele><time>2026-04-18T16:01:21Z</time></trkpt><trkpt lat="41.8969489483998" lon="14.930091532226731"><ele>25.0</ele><time>2026-04-18T16:01:23Z</time></trkpt><trkpt lat="41.89690073193633" lon="14.93015649931233"><ele>25.000000000000004</ele><time>2026-04-18T16:01:25Z</time></trkpt><trkpt lat="41.89686140096969" lon="14.930254002475351"><ele>25.0</ele><time>2026-04-18T16:01:27Z</time></trkpt><trkpt lat="41.8967651158354" lon="14.930285519737902"><ele>24.833333333333336</ele><time>2026-04-18T16:01:30Z</time></trkpt><trkpt lat="41.896694550170764" lon="14.930218426029288"><ele>24.666666666666668</ele><time>2026-04-18T16:01:32Z</time></trkpt><trkpt lat="41.89663547981157" lon="14.93014993908485"><ele>24.5</ele><time>2026-04-18T16:01:34Z</time></trkpt><trkpt lat="41.89657349321382" lon="14.930077199445932"><ele>24.333333333333336</ele><time>2026-04-18T16:01:36Z</time></trkpt><trkpt lat="41.89653211289514" lon="14.930007817540403"><ele>24.166666666666668</ele><time>2026-04-18T16:01:38Z</time></trkpt><trkpt lat="41.89657521247842" lon="14.929908504670719"><ele>24.0</ele><time>2026-04-18T16:01:41Z</time></trkpt><trkpt lat="41.89659604807049" lon="14.929826158162962"><ele>24.0</ele><time>2026-04-18T16:01:44Z</time></trkpt><trkpt lat="41.896529467034725" lon="14.929790244839484"><ele>24.0</ele><time>2026-04-18T16:01:46Z</time></trkpt><trkpt lat="41.8964537543875" lon="14.929849114730134"><ele>24.0</ele><time>2026-04-18T16:01:48Z</time></trkpt><trkpt lat="41.89637867881871" lon="14.929864444627094"><ele>24.0</ele><time>2026-04-18T16:01:50Z</time></trkpt><trkpt lat="41.89629910505136" lon="14.929823978403801"><ele>24.0</ele><time>2026-04-18T16:01:52Z</time></trkpt><trkpt lat="41.896215879158476" lon="14.92977520281786"><ele>24.0</ele><time>2026-04-18T16:01:54Z</time></trkpt><trkpt lat="41.89613539989162" lon="14.929713808824332"><ele>24.0</ele><time>2026-04-18T16:01:56Z</time></trkpt><trkpt lat="41.896046378969594" lon="14.929657324896146"><ele>24.0</ele><time>2026-04-18T16:01:58Z</time></trkpt><trkpt lat="41.895952252974254" lon="14.929603601117263"><ele>24.0</ele><time>2026-04-18T16:02:00Z</time></trkpt><trkpt lat="41.89585203485333" lon="14.929540592474751"><ele>24.0</ele><time>2026-04-18T16:02:02Z</time></trkpt><trkpt lat="41.89575180834961" lon="14.929488241205066"><ele>24.0</ele><time>2026-04-18T16:02:04Z</time></trkpt><trkpt lat="41.89564753079846" lon="14.929434970121422"><ele>24.0</ele><time>2026-04-18T16:02:06Z</time></trkpt><trkpt lat="41.89553759696593" lon="14.929401743563856"><ele>24.0</ele><time>2026-04-18T16:02:08Z</time></trkpt><trkpt lat="41.89546305509783" lon="14.929334963196549"><ele>24.0</ele><time>2026-04-18T16:02:10Z</time></trkpt><trkpt lat="41.895457450926166" lon="14.929250325958341"><ele>24.0</ele><time>2026-04-18T16:02:13Z</time></trkpt><trkpt lat="41.89552333281923" lon="14.929181677456581"><ele>24.0</ele><time>2026-04-18T16:02:16Z</time></trkpt><trkpt lat="41.895589443041835" lon="14.929209308891837"><ele>24.0</ele><time>2026-04-18T16:02:19Z</time></trkpt><trkpt lat="41.89564104989095" lon="14.92915785210048"><ele>24.0</ele><time>2026-04-18T16:02:22Z</time></trkpt><trkpt lat="41.89559326967779" lon="14.929098726173644"><ele>24.0</ele><time>2026-04-18T16:02:24Z</time></trkpt><trkpt lat="41.895520024531315" lon="14.929061092518836"><ele>24.0</ele><time>2026-04-18T16:02:26Z</time></trkpt><trkpt lat="41.895447626281204" lon="14.929033891413974"><ele>24.0</ele><time>2026-04-18T16:02:28Z</time></trkpt><trkpt lat="41.89536967456153" lon="14.929040044037341"><ele>24.0</ele><time>2026-04-18T16:02:30Z</time></trkpt><trkpt lat="41.89530101034245" lon="14.929108612670047"><ele>24.0</ele><time>2026-04-18T16:02:32Z</time></trkpt><trkpt lat="41.89524624464223" lon="14.929197404549194"><ele>24.0</ele><time>2026-04-18T16:02:34Z</time></trkpt><trkpt lat="41.89519706866159" lon="14.92930963231399"><ele>24.0</ele><time>2026-04-18T16:02:36Z</time></trkpt><trkpt lat="41.89514113251624" lon="14.92939043585557"><ele>24.0</ele><time>2026-04-18T16:02:38Z</time></trkpt><trkpt lat="41.89506743483705" lon="14.929416218916685"><ele>24.0</ele><time>2026-04-18T16:02:40Z</time></trkpt><trkpt lat="41.89497179523712" lon="14.929386295036641"><ele>24.0</ele><time>2026-04-18T16:02:43Z</time></trkpt><trkpt lat="41.894911490601125" lon="14.92932088549229"><ele>24.0</ele><time>2026-04-18T16:02:45Z</time></trkpt><trkpt lat="41.89488098372916" lon="14.92922136707195"><ele>24.0</ele><time>2026-04-18T16:02:47Z</time></trkpt><trkpt lat="41.89491374500159" lon="14.929112820388497"><ele>24.0</ele><time>2026-04-18T16:02:49Z</time></trkpt><trkpt lat="41.89497610854924" lon="14.929040344280581"><ele>24.0</ele><time>2026-04-18T16:02:51Z</time></trkpt><trkpt lat="41.89504398129332" lon="14.92899498613285"><ele>24.0</ele><time>2026-04-18T16:02:54Z</time></trkpt><trkpt lat="41.89510105765711" lon="14.928942035111751"><ele>24.0</ele><time>2026-04-18T16:02:56Z</time></trkpt><trkpt lat="41.89517823958809" lon="14.928876500617376"><ele>24.0</ele><time>2026-04-18T16:02:59Z</time></trkpt><trkpt lat="41.89523418176164" lon="14.928825771787587"><ele>24.0</ele><time>2026-04-18T16:03:01Z</time></trkpt><trkpt lat="41.89530862146482" lon="14.9287634578514"><ele>24.0</ele><time>2026-04-18T16:03:03Z</time></trkpt><trkpt lat="41.895384872118285" lon="14.928718799884507"><ele>24.0</ele><time>2026-04-18T16:03:05Z</time></trkpt><trkpt lat="41.89545668232726" lon="14.928695575627055"><ele>24.0</ele><time>2026-04-18T16:03:07Z</time></trkpt><trkpt lat="41.895540948386916" lon="14.928732502222699"><ele>24.0</ele><time>2026-04-18T16:03:10Z</time></trkpt><trkpt lat="41.8955520183251" lon="14.928844284179593"><ele>24.0</ele><time>2026-04-18T16:03:13Z</time></trkpt><trkpt lat="41.895469614569265" lon="14.92888362158496"><ele>23.999999999999996</ele><time>2026-04-18T16:03:16Z</time></trkpt><trkpt lat="41.8953995679037" lon="14.928811519670228"><ele>24.0</ele><time>2026-04-18T16:03:19Z</time></trkpt><trkpt lat="41.895338565377216" lon="14.92884442122498"><ele>24.0</ele><time>2026-04-18T16:03:22Z</time></trkpt><trkpt lat="41.89528940662801" lon="14.928903887264557"><ele>24.0</ele><time>2026-04-18T16:03:24Z</time></trkpt><trkpt lat="41.895207329854365" lon="14.928957283695448"><ele>24.0</ele><time>2026-04-18T16:03:28Z</time></trkpt><trkpt lat="41.89518106128506" lon="14.929039940498045"><ele>23.999999999999996</ele><time>2026-04-18T16:03:32Z</time></trkpt><trkpt lat="41.89524547049742" lon="14.929065999530048"><ele>24.0</ele><time>2026-04-18T16:03:37Z</time></trkpt><trkpt lat="41.89530945410822" lon="14.929027181460267"><ele>24.0</ele><time>2026-04-18T16:03:39Z</time></trkpt><trkpt lat="41.8953388748581" lon="14.928940583808744"><ele>24.0</ele><time>2026-04-18T16:04:00Z</time></trkpt><trkpt lat="41.8954096382734" lon="14.928904991833695"><ele>24.0</ele><time>2026-04-18T16:04:02Z</time></trkpt><trkpt lat="41.89547295730823" lon="14.928946741997908"><ele>24.0</ele><time>2026-04-18T16:04:05Z</time></trkpt><trkpt lat="41.895536038090334" lon="14.929005701731489"><ele>24.0</ele><time>2026-04-18T16:04:10Z</time></trkpt><trkpt lat="41.89560526342256" lon="14.929029060578998"><ele>24.0</ele><time>2026-04-18T16:04:50Z</time></trkpt><trkpt lat="41.895687068196" lon="14.929062808616882"><ele>24.0</ele><time>2026-04-18T16:04:53Z</time></trkpt><trkpt lat="41.89591913694974" lon="14.92909743985669"><ele>24.0</ele><time>2026-04-18T16:05:03Z</time></trkpt><trkpt lat="41.89598421719403" lon="14.929143889555826"><ele>24.0</ele><time>2026-04-18T16:05:06Z</time></trkpt><trkpt lat="41.89597981391739" lon="14.929247287916503"><ele>24.0</ele><time>2026-04-18T16:05:10Z</time></trkpt><trkpt lat="41.8959091071734" lon="14.929289463263565"><ele>24.0</ele><time>2026-04-18T16:05:13Z</time></trkpt><trkpt lat="41.895926145934936" lon="14.92937773010838"><ele>24.0</ele><time>2026-04-18T16:05:18Z</time></trkpt><trkpt lat="41.89598974433077" lon="14.929415626514508"><ele>24.0</ele><time>2026-04-18T16:05:21Z</time></trkpt><trkpt lat="41.895927978027885" lon="14.929381604309016"><ele>24.0</ele><time>2026-04-18T16:05:41Z</time></trkpt><trkpt lat="41.89601698202619" lon="14.929428924358456"><ele>24.0</ele><time>2026-04-18T16:06:10Z</time></trkpt><trkpt lat="41.896090000043266" lon="14.929367407762193"><ele>24.0</ele><time>2026-04-18T16:06:15Z</time></trkpt><trkpt lat="41.89614759273819" lon="14.929325712322198"><ele>24.0</ele><time>2026-04-18T16:06:17Z</time></trkpt><trkpt lat="41.896228702316925" lon="14.929378769881357"><ele>24.0</ele><time>2026-04-18T16:06:20Z</time></trkpt><trkpt lat="41.89630024903291" lon="14.929441164090658"><ele>24.0</ele><time>2026-04-18T16:06:23Z</time></trkpt><trkpt lat="41.896353864279725" lon="14.929489032046547"><ele>24.0</ele><time>2026-04-18T16:06:25Z</time></trkpt><trkpt lat="41.89640129208789" lon="14.929565494200274"><ele>24.0</ele><time>2026-04-18T16:06:29Z</time></trkpt><trkpt lat="41.896367937743314" lon="14.929639737528744"><ele>24.0</ele><time>2026-04-18T16:06:34Z</time></trkpt><trkpt lat="41.89630097467113" lon="14.929601872493507"><ele>23.999999999999996</ele><time>2026-04-18T16:06:36Z</time></trkpt><trkpt lat="41.896246990771786" lon="14.929549062691803"><ele>24.0</ele><time>2026-04-18T16:06:39Z</time></trkpt><trkpt lat="41.89618807324617" lon="14.92949443553014"><ele>24.0</ele><time>2026-04-18T16:06:42Z</time></trkpt><trkpt lat="41.89612677623943" lon="14.929460932760666"><ele>24.0</ele><time>2026-04-18T16:06:45Z</time></trkpt><trkpt lat="41.89607418928852" lon="14.92950967591048"><ele>24.0</ele><time>2026-04-18T16:06:48Z</time></trkpt><trkpt lat="41.896151780893454" lon="14.92958393394814"><ele>23.999999999999996</ele><time>2026-04-18T16:06:51Z</time></trkpt><trkpt lat="41.89622076869588" lon="14.929615542366454"><ele>24.0</ele><time>2026-04-18T16:06:53Z</time></trkpt><trkpt lat="41.89629674797397" lon="14.929673675307441"><ele>23.999999999999996</ele><time>2026-04-18T16:06:55Z</time></trkpt><trkpt lat="41.89636902681032" lon="14.929714136641698"><ele>24.0</ele><time>2026-04-18T16:06:57Z</time></trkpt><trkpt lat="41.89643320591641" lon="14.929757891908302"><ele>24.0</ele><time>2026-04-18T16:06:59Z</time></trkpt><trkpt lat="41.896495286343246" lon="14.929805915905103"><ele>24.0</ele><time>2026-04-18T16:07:01Z</time></trkpt><trkpt lat="41.896433924846846" lon="14.929763835422069"><ele>24.0</ele><time>2026-04-18T16:07:54Z</time></trkpt><trkpt lat="41.89638123694831" lon="14.929715052232343"><ele>23.999999999999996</ele><time>2026-04-18T16:07:59Z</time></trkpt><trkpt lat="41.8963251019163" lon="14.92967564968492"><ele>24.0</ele><time>2026-04-18T16:08:05Z</time></trkpt><trkpt lat="41.896395414297984" lon="14.929728674135049"><ele>24.0</ele><time>2026-04-18T16:08:43Z</time></trkpt><trkpt lat="41.89648769142198" lon="14.92972751925034"><ele>24.0</ele><time>2026-04-18T16:08:50Z</time></trkpt><trkpt lat="41.89662264966048" lon="14.929680600311704"><ele>24.0</ele><time>2026-04-18T16:09:10Z</time></trkpt><trkpt lat="41.89669945895024" lon="14.929726918605466"><ele>24.0</ele><time>2026-04-18T16:09:11Z</time></trkpt><trkpt lat="41.89677680356448" lon="14.929811660269507"><ele>24.0</ele><time>2026-04-18T16:09:12Z</time></trkpt><trkpt lat="41.89687197566208" lon="14.929817072184209"><ele>24.0</ele><time>2026-04-18T16:09:13Z</time></trkpt><trkpt lat="41.89695232077233" lon="14.92988425700296"><ele>24.0</ele><time>2026-04-18T16:09:15Z</time></trkpt><trkpt lat="41.89689431237764" lon="14.929835750255348"><ele>24.0</ele><time>2026-04-18T16:09:25Z</time></trkpt><trkpt lat="41.89683881062011" lon="14.929789339558996"><ele>24.0</ele><time>2026-04-18T16:09:29Z</time></trkpt><trkpt lat="41.896767599753666" lon="14.929729792830058"><ele>24.0</ele><time>2026-04-18T16:09:32Z</time></trkpt><trkpt lat="41.89679122518486" lon="14.929815890202562"><ele>24.0</ele><time>2026-04-18T16:09:40Z</time></trkpt><trkpt lat="41.89679175746207" lon="14.929910994837273"><ele>23.999999999999996</ele><time>2026-04-18T16:09:42Z</time></trkpt><trkpt lat="41.89675687061444" lon="14.929997819515053"><ele>24.0</ele><time>2026-04-18T16:09:54Z</time></trkpt><trkpt lat="41.89675639791198" lon="14.93008788798917"><ele>24.0</ele><time>2026-04-18T16:09:58Z</time></trkpt><trkpt lat="41.89683470168573" lon="14.930131329020941"><ele>24.0</ele><time>2026-04-18T16:10:02Z</time></trkpt><trkpt lat="41.89687119909424" lon="14.930052322133854"><ele>24.0</ele><time>2026-04-18T16:10:04Z</time></trkpt><trkpt lat="41.89691671374938" lon="14.929993227521889"><ele>23.999999999999996</ele><time>2026-04-18T16:10:06Z</time></trkpt><trkpt lat="41.89700744512311" lon="14.930002378956635"><ele>24.0</ele><time>2026-04-18T16:10:09Z</time></trkpt><trkpt lat="41.89708623770695" lon="14.9300488817565"><ele>24.166666666666668</ele><time>2026-04-18T16:10:12Z</time></trkpt><trkpt lat="41.8971363059987" lon="14.930125671169925"><ele>24.333333333333336</ele><time>2026-04-18T16:10:18Z</time></trkpt><trkpt lat="41.89717320031551" lon="14.930198463837602"><ele>24.5</ele><time>2026-04-18T16:10:20Z</time></trkpt><trkpt lat="41.897210033453774" lon="14.930297821311516"><ele>24.666666666666668</ele><time>2026-04-18T16:10:23Z</time></trkpt><trkpt lat="41.89726662453493" lon="14.930394683131935"><ele>24.833333333333336</ele><time>2026-04-18T16:10:26Z</time></trkpt><trkpt lat="41.89719084544591" lon="14.930438027501898"><ele>25.0</ele><time>2026-04-18T16:10:29Z</time></trkpt><trkpt lat="41.89713114580541" lon="14.930324946916674"><ele>25.000000000000004</ele><time>2026-04-18T16:10:31Z</time></trkpt><trkpt lat="41.89707452954662" lon="14.930235630338988"><ele>25.0</ele><time>2026-04-18T16:10:33Z</time></trkpt><trkpt lat="41.89701345161104" lon="14.93015458792021"><ele>25.0</ele><time>2026-04-18T16:10:35Z</time></trkpt><trkpt lat="41.89695331476264" lon="14.930087211752893"><ele>25.0</ele><time>2026-04-18T16:10:37Z</time></trkpt><trkpt lat="41.89689540013329" lon="14.930138634628966"><ele>25.000000000000004</ele><time>2026-04-18T16:10:39Z</time></trkpt><trkpt lat="41.89686147696001" lon="14.930264451054704"><ele>25.0</ele><time>2026-04-18T16:10:41Z</time></trkpt><trkpt lat="41.896777577052134" lon="14.93027843325834"><ele>24.833333333333336</ele><time>2026-04-18T16:10:43Z</time></trkpt><trkpt lat="41.89669647347989" lon="14.930227145135552"><ele>24.666666666666668</ele><time>2026-04-18T16:10:45Z</time></trkpt><trkpt lat="41.896628987504116" lon="14.93015276886803"><ele>24.5</ele><time>2026-04-18T16:10:47Z</time></trkpt><trkpt lat="41.89656245394628" lon="14.930064323343323"><ele>24.333333333333336</ele><time>2026-04-18T16:10:49Z</time></trkpt><trkpt lat="41.896537120686524" lon="14.929953561860708"><ele>24.166666666666668</ele><time>2026-04-18T16:10:53Z</time></trkpt><trkpt lat="41.896592264614746" lon="14.92985700057759"><ele>24.0</ele><time>2026-04-18T16:11:08Z</time></trkpt><trkpt lat="41.89653934380331" lon="14.92977957375975"><ele>24.0</ele><time>2026-04-18T16:11:11Z</time></trkpt><trkpt lat="41.89646818301937" lon="14.929820285096838"><ele>24.0</ele><time>2026-04-18T16:11:13Z</time></trkpt><trkpt lat="41.89640234813041" lon="14.929856454832096"><ele>24.0</ele><time>2026-04-18T16:11:15Z</time></trkpt><trkpt lat="41.89633197036109" lon="14.929820768348732"><ele>24.0</ele><time>2026-04-18T16:11:17Z</time></trkpt><trkpt lat="41.896250442269675" lon="14.92977045938347"><ele>24.0</ele><time>2026-04-18T16:11:19Z</time></trkpt><trkpt lat="41.89616475299588" lon="14.929707750624383"><ele>24.0</ele><time>2026-04-18T16:11:21Z</time></trkpt><trkpt lat="41.896072282355746" lon="14.929657719958355"><ele>24.0</ele><time>2026-04-18T16:11:23Z</time></trkpt><trkpt lat="41.89598011146782" lon="14.929605342246926"><ele>24.0</ele><time>2026-04-18T16:11:25Z</time></trkpt><trkpt lat="41.89589109988549" lon="14.929552768225419"><ele>24.0</ele><time>2026-04-18T16:11:27Z</time></trkpt><trkpt lat="41.895803444341205" lon="14.929505292038314"><ele>24.0</ele><time>2026-04-18T16:11:29Z</time></trkpt><trkpt lat="41.89572602961429" lon="14.929451473349872"><ele>24.0</ele><time>2026-04-18T16:11:31Z</time></trkpt><trkpt lat="41.89563336058139" lon="14.929409215381607"><ele>24.0</ele><time>2026-04-18T16:11:33Z</time></trkpt><trkpt lat="41.89554814636539" lon="14.929380472920474"><ele>24.0</ele><time>2026-04-18T16:11:35Z</time></trkpt><trkpt lat="41.89547628036045" lon="14.929330080108848"><ele>24.0</ele><time>2026-04-18T16:11:37Z</time></trkpt><trkpt lat="41.8954496061652" lon="14.92921837379898"><ele>24.0</ele><time>2026-04-18T16:11:41Z</time></trkpt><trkpt lat="41.895510982168624" lon="14.929160823307507"><ele>24.0</ele><time>2026-04-18T16:11:43Z</time></trkpt><trkpt lat="41.89558162371536" lon="14.929205885383636"><ele>24.0</ele><time>2026-04-18T16:11:45Z</time></trkpt><trkpt lat="41.895635883235606" lon="14.929158099149134"><ele>24.0</ele><time>2026-04-18T16:11:48Z</time></trkpt><trkpt lat="41.89559220553655" lon="14.92908113032613"><ele>24.0</ele><time>2026-04-18T16:11:50Z</time></trkpt><trkpt lat="41.895511651022254" lon="14.929034923709372"><ele>24.0</ele><time>2026-04-18T16:11:52Z</time></trkpt><trkpt lat="41.895427446336015" lon="14.928996459640318"><ele>24.0</ele><time>2026-04-18T16:11:54Z</time></trkpt><trkpt lat="41.89533913292751" lon="14.929035288868702"><ele>24.0</ele><time>2026-04-18T16:11:56Z</time></trkpt><trkpt lat="41.89527535473793" lon="14.929119533634653"><ele>24.0</ele><time>2026-04-18T16:11:58Z</time></trkpt><trkpt lat="41.895227869034024" lon="14.929228708750601"><ele>24.0</ele><time>2026-04-18T16:12:00Z</time></trkpt><trkpt lat="41.8951795115922" lon="14.929347225878512"><ele>24.0</ele><time>2026-04-18T16:12:02Z</time></trkpt><trkpt lat="41.89511401520021" lon="14.929410272429186"><ele>24.0</ele><time>2026-04-18T16:12:04Z</time></trkpt><trkpt lat="41.8950452474605" lon="14.929389334535053"><ele>24.0</ele><time>2026-04-18T16:12:06Z</time></trkpt><trkpt lat="41.89495701801597" lon="14.929336846142633"><ele>24.0</ele><time>2026-04-18T16:12:10Z</time></trkpt><trkpt lat="41.894893604568615" lon="14.929228515548624"><ele>24.0</ele><time>2026-04-18T16:12:12Z</time></trkpt><trkpt lat="41.894923887583865" lon="14.929109035396658"><ele>24.0</ele><time>2026-04-18T16:12:14Z</time></trkpt><trkpt lat="41.89499596826865" lon="14.929022824191705"><ele>24.0</ele><time>2026-04-18T16:12:16Z</time></trkpt><trkpt lat="41.89507019911752" lon="14.92897056595695"><ele>24.0</ele><time>2026-04-18T16:12:17.999Z</time></trkpt><trkpt lat="41.895154348553156" lon="14.92889130252419"><ele>24.0</ele><time>2026-04-18T16:12:19.999Z</time></trkpt><trkpt lat="41.89523194981712" lon="14.928827517881452"><ele>24.0</ele><time>2026-04-18T16:12:21.999Z</time></trkpt><trkpt lat="41.895306322740936" lon="14.928759178600998"><ele>24.0</ele><time>2026-04-18T16:12:24Z</time></trkpt><trkpt lat="41.895370027686454" lon="14.928722370569483"><ele>24.0</ele><time>2026-04-18T16:12:26Z</time></trkpt><trkpt lat="41.895442975468434" lon="14.92868011852061"><ele>24.0</ele><time>2026-04-18T16:12:27.999Z</time></trkpt><trkpt lat="41.89551612859034" lon="14.928699351742807"><ele>24.0</ele><time>2026-04-18T16:12:30Z</time></trkpt><trkpt lat="41.89555248917251" lon="14.92878156944336"><ele>24.0</ele><time>2026-04-18T16:12:33Z</time></trkpt><trkpt lat="41.89551948068697" lon="14.92886199564807"><ele>24.0</ele><time>2026-04-18T16:12:36Z</time></trkpt><trkpt lat="41.89544264710627" lon="14.928853676465828"><ele>24.0</ele><time>2026-04-18T16:12:39Z</time></trkpt><trkpt lat="41.89539493179298" lon="14.928795006529937"><ele>24.0</ele><time>2026-04-18T16:12:42Z</time></trkpt><trkpt lat="41.89531731156102" lon="14.928867258740558"><ele>24.0</ele><time>2026-04-18T16:12:47Z</time></trkpt><trkpt lat="41.895253108801676" lon="14.92893397410406"><ele>24.0</ele><time>2026-04-18T16:12:50Z</time></trkpt><trkpt lat="41.89518848941411" lon="14.928968391264226"><ele>24.0</ele><time>2026-04-18T16:12:53Z</time></trkpt><trkpt lat="41.89519963273661" lon="14.929068177877811"><ele>24.0</ele><time>2026-04-18T16:12:57Z</time></trkpt><trkpt lat="41.89528391317227" lon="14.929026539454023"><ele>24.0</ele><time>2026-04-18T16:12:59Z</time></trkpt><trkpt lat="41.89532811922464" lon="14.928954470135118"><ele>24.0</ele><time>2026-04-18T16:13:14Z</time></trkpt><trkpt lat="41.89542536540184" lon="14.928918709541346"><ele>24.0</ele><time>2026-04-18T16:13:17Z</time></trkpt><trkpt lat="41.89548368836211" lon="14.928977784780871"><ele>24.0</ele><time>2026-04-18T16:13:22Z</time></trkpt><trkpt lat="41.89554176840759" lon="14.929015279902128"><ele>24.0</ele><time>2026-04-18T16:13:25Z</time></trkpt><trkpt lat="41.89561982317284" lon="14.92903590092191"><ele>24.0</ele><time>2026-04-18T16:13:28Z</time></trkpt><trkpt lat="41.89569628299862" lon="14.92907470400741"><ele>24.0</ele><time>2026-04-18T16:13:30Z</time></trkpt><trkpt lat="41.895771369905034" lon="14.929054792861969"><ele>24.0</ele><time>2026-04-18T16:13:33Z</time></trkpt><trkpt lat="41.8958446241525" lon="14.929029358739431"><ele>24.0</ele><time>2026-04-18T16:13:35Z</time></trkpt><trkpt lat="41.895911578845926" lon="14.929089945046986"><ele>24.0</ele><time>2026-04-18T16:13:37Z</time></trkpt><trkpt lat="41.89596106543472" lon="14.929146661215638"><ele>24.0</ele><time>2026-04-18T16:13:39Z</time></trkpt><trkpt lat="41.89597715589584" lon="14.929247354251165"><ele>23.999999999999996</ele><time>2026-04-18T16:13:42Z</time></trkpt><trkpt lat="41.895915205119856" lon="14.929290285308857"><ele>24.0</ele><time>2026-04-18T16:13:44Z</time></trkpt><trkpt lat="41.89591908944751" lon="14.929382070341811"><ele>24.0</ele><time>2026-04-18T16:13:48Z</time></trkpt><trkpt lat="41.89598731694159" lon="14.929426900620053"><ele>24.0</ele><time>2026-04-18T16:13:50Z</time></trkpt><trkpt lat="41.89606952574972" lon="14.92939654560845"><ele>24.0</ele><time>2026-04-18T16:13:54Z</time></trkpt><trkpt lat="41.89611507075726" lon="14.929327766788619"><ele>23.999999999999996</ele><time>2026-04-18T16:13:56Z</time></trkpt><trkpt lat="41.89619243386038" lon="14.92934747245362"><ele>24.0</ele><time>2026-04-18T16:13:59Z</time></trkpt><trkpt lat="41.8962481224206" lon="14.929398675649603"><ele>24.0</ele><time>2026-04-18T16:14:01Z</time></trkpt><trkpt lat="41.8963035721433" lon="14.929443390261026"><ele>24.0</ele><time>2026-04-18T16:14:03Z</time></trkpt><trkpt lat="41.89636850455102" lon="14.929504381605108"><ele>24.0</ele><time>2026-04-18T16:14:05Z</time></trkpt><trkpt lat="41.89640277545095" lon="14.929576196849027"><ele>24.0</ele><time>2026-04-18T16:14:07Z</time></trkpt><trkpt lat="41.89633009177141" lon="14.92963218731601"><ele>24.0</ele><time>2026-04-18T16:14:10Z</time></trkpt><trkpt lat="41.896260817399465" lon="14.92954960273517"><ele>24.0</ele><time>2026-04-18T16:14:12Z</time></trkpt><trkpt lat="41.896193276006755" lon="14.929478978083887"><ele>24.0</ele><time>2026-04-18T16:14:14Z</time></trkpt><trkpt lat="41.89611255689738" lon="14.929446725285773"><ele>24.0</ele><time>2026-04-18T16:14:16Z</time></trkpt><trkpt lat="41.89605386233148" lon="14.929493462254788"><ele>24.0</ele><time>2026-04-18T16:14:18Z</time></trkpt><trkpt lat="41.89614677815653" lon="14.929569551391452"><ele>24.0</ele><time>2026-04-18T16:14:21Z</time></trkpt><trkpt lat="41.896245254802274" lon="14.929635841504034"><ele>24.0</ele><time>2026-04-18T16:14:23Z</time></trkpt><trkpt lat="41.89635531330953" lon="14.929708987906915"><ele>24.0</ele><time>2026-04-18T16:14:25Z</time></trkpt><trkpt lat="41.896440970370904" lon="14.929763220137199"><ele>24.0</ele><time>2026-04-18T16:14:27Z</time></trkpt><trkpt lat="41.89649840478591" lon="14.929798440957851"><ele>24.0</ele><time>2026-04-18T16:14:30Z</time></trkpt><trkpt lat="41.8964337891539" lon="14.92975499008122"><ele>24.0</ele><time>2026-04-18T16:14:44Z</time></trkpt><trkpt lat="41.89652488143629" lon="14.929706213683533"><ele>24.0</ele><time>2026-04-18T16:15:09Z</time></trkpt><trkpt lat="41.89660058951864" lon="14.929692575562447"><ele>24.0</ele><time>2026-04-18T16:15:10Z</time></trkpt><trkpt lat="41.89666879133206" lon="14.92974333344747"><ele>24.0</ele><time>2026-04-18T16:15:12Z</time></trkpt><trkpt lat="41.896723220528244" lon="14.929692682808131"><ele>24.0</ele><time>2026-04-18T16:15:13Z</time></trkpt><trkpt lat="41.896793728418054" lon="14.929751641664826"><ele>24.0</ele><time>2026-04-18T16:15:16Z</time></trkpt><trkpt lat="41.89684950536405" lon="14.929798282488463"><ele>24.0</ele><time>2026-04-18T16:15:19Z</time></trkpt><trkpt lat="41.8967435268953" lon="14.930036482002464"><ele>24.0</ele><time>2026-04-18T16:15:36Z</time></trkpt><trkpt lat="41.8967843725872" lon="14.930127518197244"><ele>24.0</ele><time>2026-04-18T16:15:43Z</time></trkpt><trkpt lat="41.89685248034851" lon="14.9300645617608"><ele>24.0</ele><time>2026-04-18T16:15:46Z</time></trkpt><trkpt lat="41.896918481800796" lon="14.929976699696347"><ele>24.0</ele><time>2026-04-18T16:15:49Z</time></trkpt><trkpt lat="41.8969840873899" lon="14.929976628031183"><ele>24.0</ele><time>2026-04-18T16:15:51Z</time></trkpt><trkpt lat="41.89704202344957" lon="14.930024753559861"><ele>24.0</ele><time>2026-04-18T16:15:54Z</time></trkpt><trkpt lat="41.897094688336495" lon="14.930081732386611"><ele>24.0</ele><time>2026-04-18T16:15:56Z</time></trkpt><trkpt lat="41.89714678906123" lon="14.930173903556462"><ele>24.142857142857142</ele><time>2026-04-18T16:15:58Z</time></trkpt><trkpt lat="41.89719292318995" lon="14.930274133280157"><ele>24.285714285714285</ele><time>2026-04-18T16:16:00Z</time></trkpt><trkpt lat="41.89723487457661" lon="14.93036111477339"><ele>24.42857142857143</ele><time>2026-04-18T16:16:02Z</time></trkpt><trkpt lat="41.89722322074913" lon="14.930451575217324"><ele>24.57142857142857</ele><time>2026-04-18T16:16:05Z</time></trkpt><trkpt lat="41.89716636464359" lon="14.93040377132983"><ele>24.714285714285715</ele><time>2026-04-18T16:16:07Z</time></trkpt><trkpt lat="41.897128374405504" lon="14.930323759212847"><ele>24.857142857142858</ele><time>2026-04-18T16:16:09Z</time></trkpt><trkpt lat="41.89708149679538" lon="14.930261791904153"><ele>25.0</ele><time>2026-04-18T16:16:25Z</time></trkpt><trkpt lat="41.89703175663351" lon="14.93018711431545"><ele>25.000000000000004</ele><time>2026-04-18T16:16:41Z</time></trkpt><trkpt lat="41.8969813050053" lon="14.930120225305183"><ele>25.0</ele><time>2026-04-18T16:16:44Z</time></trkpt><trkpt lat="41.89691346672283" lon="14.930100556842081"><ele>25.0</ele><time>2026-04-18T16:16:47Z</time></trkpt><trkpt lat="41.89688137946807" lon="14.930183448072901"><ele>25.0</ele><time>2026-04-18T16:16:49Z</time></trkpt><trkpt lat="41.89684262551387" lon="14.930251314907286"><ele>25.0</ele><time>2026-04-18T16:16:51Z</time></trkpt><trkpt lat="41.896779307341504" lon="14.930265572368464"><ele>25.000000000000004</ele><time>2026-04-18T16:16:53Z</time></trkpt><trkpt lat="41.89670774075582" lon="14.93022223971068"><ele>25.0</ele><time>2026-04-18T16:16:55Z</time></trkpt><trkpt lat="41.89663322650085" lon="14.930140545917272"><ele>24.833333333333336</ele><time>2026-04-18T16:16:57Z</time></trkpt><trkpt lat="41.89657843784371" lon="14.930070863000292"><ele>24.666666666666668</ele><time>2026-04-18T16:17:00Z</time></trkpt><trkpt lat="41.89652409831735" lon="14.929992304082013"><ele>24.5</ele><time>2026-04-18T16:17:03Z</time></trkpt><trkpt lat="41.896564445187515" lon="14.929900978521419"><ele>24.333333333333336</ele><time>2026-04-18T16:17:05Z</time></trkpt><trkpt lat="41.896570419880774" lon="14.929803507516471"><ele>24.166666666666668</ele><time>2026-04-18T16:17:08Z</time></trkpt><trkpt lat="41.89648242337233" lon="14.929800489798556"><ele>24.0</ele><time>2026-04-18T16:17:10Z</time></trkpt><trkpt lat="41.896407509824385" lon="14.929857921590578"><ele>24.0</ele><time>2026-04-18T16:17:12Z</time></trkpt><trkpt lat="41.89633310125598" lon="14.929835323682525"><ele>24.0</ele><time>2026-04-18T16:17:14Z</time></trkpt><trkpt lat="41.896244595255" lon="14.929784998479418"><ele>24.0</ele><time>2026-04-18T16:17:16Z</time></trkpt><trkpt lat="41.89618816326095" lon="14.929743196413613"><ele>24.0</ele><time>2026-04-18T16:17:17Z</time></trkpt><trkpt lat="41.89610011908924" lon="14.92968044606807"><ele>24.0</ele><time>2026-04-18T16:17:19Z</time></trkpt><trkpt lat="41.895995045018296" lon="14.929620531592539"><ele>24.0</ele><time>2026-04-18T16:17:21Z</time></trkpt><trkpt lat="41.89588998774109" lon="14.929559933163217"><ele>24.0</ele><time>2026-04-18T16:17:23Z</time></trkpt><trkpt lat="41.89579239673561" lon="14.92949615800646"><ele>24.0</ele><time>2026-04-18T16:17:25Z</time></trkpt><trkpt lat="41.895684954127425" lon="14.929448303102815"><ele>24.0</ele><time>2026-04-18T16:17:27Z</time></trkpt><trkpt lat="41.89558376556285" lon="14.929391581289146"><ele>24.0</ele><time>2026-04-18T16:17:29Z</time></trkpt><trkpt lat="41.89549878383894" lon="14.929349597793916"><ele>24.0</ele><time>2026-04-18T16:17:31Z</time></trkpt><trkpt lat="41.89544904649803" lon="14.929287781165884"><ele>24.0</ele><time>2026-04-18T16:17:33Z</time></trkpt><trkpt lat="41.89544016694904" lon="14.929181811281595"><ele>24.0</ele><time>2026-04-18T16:17:35Z</time></trkpt><trkpt lat="41.89550886165181" lon="14.92915841257872"><ele>24.0</ele><time>2026-04-18T16:17:37Z</time></trkpt><trkpt lat="41.895584852368046" lon="14.92921727943943"><ele>24.0</ele><time>2026-04-18T16:17:39Z</time></trkpt><trkpt lat="41.895623449778675" lon="14.929119621901998"><ele>24.0</ele><time>2026-04-18T16:17:42Z</time></trkpt><trkpt lat="41.895558385647604" lon="14.929061539947357"><ele>24.0</ele><time>2026-04-18T16:17:44Z</time></trkpt><trkpt lat="41.89548061085138" lon="14.92902449817783"><ele>24.0</ele><time>2026-04-18T16:17:46Z</time></trkpt><trkpt lat="41.8954017187949" lon="14.929010824254334"><ele>24.0</ele><time>2026-04-18T16:17:48Z</time></trkpt><trkpt lat="41.89533322232601" lon="14.929045127265827"><ele>24.0</ele><time>2026-04-18T16:17:50Z</time></trkpt><trkpt lat="41.89528918529002" lon="14.929106919606191"><ele>24.0</ele><time>2026-04-18T16:17:52Z</time></trkpt><trkpt lat="41.89524090130769" lon="14.929200281067251"><ele>24.0</ele><time>2026-04-18T16:17:54Z</time></trkpt><trkpt lat="41.89519300964549" lon="14.92931497897573"><ele>24.0</ele><time>2026-04-18T16:17:56Z</time></trkpt><trkpt lat="41.89513474328603" lon="14.929393248410543"><ele>24.0</ele><time>2026-04-18T16:17:58Z</time></trkpt><trkpt lat="41.89506346017198" lon="14.929396408701745"><ele>24.0</ele><time>2026-04-18T16:18:01Z</time></trkpt><trkpt lat="41.89498963616468" lon="14.929367889899659"><ele>24.0</ele><time>2026-04-18T16:18:03Z</time></trkpt><trkpt lat="41.894934210279516" lon="14.92930733474062"><ele>24.0</ele><time>2026-04-18T16:18:05Z</time></trkpt><trkpt lat="41.894907524253185" lon="14.929210912840125"><ele>24.0</ele><time>2026-04-18T16:18:07Z</time></trkpt><trkpt lat="41.89494315865401" lon="14.929101162366885"><ele>24.0</ele><time>2026-04-18T16:18:09Z</time></trkpt><trkpt lat="41.89501680621797" lon="14.92902980950389"><ele>24.0</ele><time>2026-04-18T16:18:11Z</time></trkpt><trkpt lat="41.89510132386604" lon="14.928975805841736"><ele>24.0</ele><time>2026-04-18T16:18:13Z</time></trkpt><trkpt lat="41.89516201243572" lon="14.928925982171855"><ele>24.0</ele><time>2026-04-18T16:18:14Z</time></trkpt><trkpt lat="41.89522835144889" lon="14.928858368532493"><ele>24.0</ele><time>2026-04-18T16:18:15Z</time></trkpt><trkpt lat="41.895318728636404" lon="14.928775850448625"><ele>24.0</ele><time>2026-04-18T16:18:17Z</time></trkpt><trkpt lat="41.8954152985043" lon="14.928713851090468"><ele>24.0</ele><time>2026-04-18T16:18:19Z</time></trkpt><trkpt lat="41.895496667007414" lon="14.92870444408383"><ele>24.0</ele><time>2026-04-18T16:18:21Z</time></trkpt><trkpt lat="41.895594344928384" lon="14.928719370224577"><ele>24.0</ele><time>2026-04-18T16:18:24Z</time></trkpt><trkpt lat="41.89544386452361" lon="14.928889696347502"><ele>24.0</ele><time>2026-04-18T16:18:28Z</time></trkpt><trkpt lat="41.895407181968274" lon="14.928814963631496"><ele>24.0</ele><time>2026-04-18T16:18:31Z</time></trkpt></trkseg></trk></gpx>